Time;durP1;ratioP1;P1;durP2;ratioP2;P2;SDS_P1;SDS_P2;PMS_P1;PMS_P2;Temp;Humidity;BMP_temperature;BMP_pressure;BME280_temperature;BME280_humidity;BME280_pressure;Samples;Min_cycle;Max_cycle;Signal;HPM_P1;HPM_P2
2024/01/11 08:46:30;;;;;;;21.10;12.82;;;;;;;;;;6167965;23;20028;31
2024/01/11 09:57:11;;;;;;;14.48;10.57;;;;;;;;;;6210081;23;20462;-93
2024/01/11 09:59:37;;;;;;;14.32;10.07;;;;;;;;;;6185768;23;20009;-92
2024/01/11 10:02:03;;;;;;;12.88;9.88;;;;;;;;;;6186149;23;20009;-94
2024/01/11 10:04:29;;;;;;;12.40;9.30;;;;;;;;;;6185723;23;20009;-96
2024/01/11 10:06:56;;;;;;;11.88;8.93;;;;;;;;;;6186736;23;20012;-94
2024/01/11 10:09:22;;;;;;;14.32;9.55;;;;;;;;;;6185798;23;20004;-94
2024/01/11 10:11:49;;;;;;;14.50;10.32;;;;;;;;;;6186573;23;20032;-95
2024/01/11 10:14:14;;;;;;;15.25;10.02;;;;;;;;;;6188003;23;20009;-94
2024/01/11 10:16:43;;;;;;;15.85;10.40;;;;;;;;;;6191955;23;20083;-95
2024/01/11 10:19:10;;;;;;;13.85;9.23;;;;;;;;;;6186673;23;20447;-94
2024/01/11 10:21:39;;;;;;;15.77;9.50;;;;;;;;;;6186659;23;20005;-94
2024/01/11 10:24:05;;;;;;;14.90;9.65;;;;;;;;;;6186534;23;20016;-95
2024/01/11 10:26:32;;;;;;;13.57;8.48;;;;;;;;;;6186300;23;20040;-96
2024/01/11 10:29:00;;;;;;;12.15;8.88;;;;;;;;;;6187061;23;20024;-96
2024/01/11 10:31:28;;;;;;;12.10;9.30;;;;;;;;;;6186986;23;20009;-95
2024/01/11 10:33:54;;;;;;;13.30;9.63;;;;;;;;;;6188039;23;20009;-96
2024/01/11 10:36:20;;;;;;;13.13;9.38;;;;;;;;;;6187980;23;20027;-96
2024/01/11 10:38:47;;;;;;;13.90;9.85;;;;;;;;;;6190823;23;20028;-95
2024/01/11 10:41:18;;;;;;;14.45;10.23;;;;;;;;;;6192340;23;20016;-96
2024/01/11 10:43:45;;;;;;;11.48;8.70;;;;;;;;;;6196781;23;20425;-95
2024/01/11 10:46:13;;;;;;;11.43;8.88;;;;;;;;;;6187559;23;20009;-95
2024/01/11 10:48:41;;;;;;;10.43;7.93;;;;;;;;;;6187154;23;20001;-95
2024/01/11 10:51:12;;;;;;;11.75;8.40;;;;;;;;;;6185157;23;20035;-92
2024/01/11 10:53:45;;;;;;;17.17;9.35;;;;;;;;;;6186537;23;20005;-94
2024/01/11 10:56:12;;;;;;;19.33;9.10;;;;;;;;;;6186397;23;20005;-87
2024/01/11 10:58:40;;;;;;;12.38;7.68;;;;;;;;;;6186617;23;20009;-90
2024/01/11 11:01:06;;;;;;;13.45;8.77;;;;;;;;;;6186192;23;20023;-88
2024/01/11 11:03:35;;;;;;;11.13;8.60;;;;;;;;;;6190934;23;20001;-88
2024/01/11 11:06:02;;;;;;;13.57;9.02;;;;;;;;;;6194760;23;20027;-88
2024/01/11 11:08:28;;;;;;;12.18;8.98;;;;;;;;;;6189930;23;20001;-89
2024/01/11 11:10:58;;;;;;;11.35;8.13;;;;;;;;;;6186515;23;20019;-92
2024/01/11 11:13:23;;;;;;;;;;;;;;;;;;6187181;23;20076;-91
2024/01/11 11:15:49;;;;;;;24.58;9.20;;;;;;;;;;6187572;23;19919;-92
2024/01/11 11:18:16;;;;;;;12.60;8.88;;;;;;;;;;6162094;23;20005;-89
2024/01/11 11:20:42;;;;;;;16.15;7.97;;;;;;;;;;6186488;23;20317;-92
2024/01/11 11:23:09;;;;;;;18.98;7.90;;;;;;;;;;6186493;23;20066;-90
2024/01/11 11:25:35;;;;;;;12.20;7.80;;;;;;;;;;6188460;23;20001;-91
2024/01/11 11:28:03;;;;;;;14.45;8.45;;;;;;;;;;6186518;23;20451;-94
2024/01/11 11:30:39;;;;;;;16.05;8.50;;;;;;;;;;6186465;23;20005;-92
2024/01/11 11:33:19;;;;;;;13.07;8.38;;;;;;;;;;6186550;23;20009;-91
2024/01/11 11:35:48;;;;;;;16.63;8.50;;;;;;;;;;6187766;23;20001;-89
2024/01/11 11:38:26;;;;;;;16.27;8.60;;;;;;;;;;6186872;23;20009;-89
2024/01/11 11:40:53;;;;;;;12.90;8.73;;;;;;;;;;6188589;23;20259;-90
2024/01/11 11:43:22;;;;;;;13.10;8.95;;;;;;;;;;6186522;23;19997;-90
2024/01/11 11:45:49;;;;;;;10.38;8.30;;;;;;;;;;6190082;23;19997;-92
2024/01/11 11:48:34;;;;;;;14.10;8.75;;;;;;;;;;6187731;23;20031;-92
2024/01/11 11:51:11;;;;;;;11.25;7.05;;;;;;;;;;6188273;23;20036;-92
2024/01/11 11:53:37;;;;;;;10.07;7.82;;;;;;;;;;6190131;23;20005;-92
2024/01/11 11:56:06;;;;;;;10.95;8.02;;;;;;;;;;6190462;23;20005;-92
2024/01/11 11:58:36;;;;;;;10.88;7.57;;;;;;;;;;6166302;23;20024;-93
2024/01/11 12:01:06;;;;;;;10.23;8.13;;;;;;;;;;6190830;23;20013;-92
2024/01/11 12:03:39;;;;;;;9.13;6.93;;;;;;;;;;6191582;23;20013;-92
2024/01/11 12:06:07;;;;;;;9.57;7.53;;;;;;;;;;6168916;23;20013;-92
2024/01/11 12:08:39;;;;;;;8.98;7.30;;;;;;;;;;6194041;23;20012;-93
2024/01/11 12:11:05;;;;;;;10.05;7.05;;;;;;;;;;6192812;23;20043;-92
2024/01/11 12:13:31;;;;;;;10.70;7.88;;;;;;;;;;6194384;23;20087;-92
2024/01/11 12:15:57;;;;;;;11.00;7.55;;;;;;;;;;6191924;23;20031;-95
2024/01/11 12:18:22;;;;;;;11.38;7.60;;;;;;;;;;6188519;23;20321;-94
2024/01/11 12:20:48;;;;;;;9.73;7.07;;;;;;;;;;6187288;23;20040;-95
2024/01/11 12:23:14;;;;;;;10.93;7.88;;;;;;;;;;6187929;23;20401;-94
2024/01/11 12:25:41;;;;;;;9.63;6.90;;;;;;;;;;6187437;23;20368;-94
2024/01/11 12:28:07;;;;;;;10.65;7.18;;;;;;;;;;6187290;23;20424;-93
2024/01/11 12:30:32;;;;;;;7.97;6.93;;;;;;;;;;6188244;23;20009;-92
2024/01/11 12:33:01;;;;;;;11.25;7.53;;;;;;;;;;6186980;23;20031;-93
2024/01/11 12:35:27;;;;;;;12.25;7.85;;;;;;;;;;6186715;23;20005;-93
2024/01/11 12:38:00;;;;;;;8.73;6.65;;;;;;;;;;6187563;23;20009;-93
2024/01/11 12:40:27;;;;;;;8.63;6.55;;;;;;;;;;6186727;23;20013;-94
2024/01/11 17:01:28;;;;;;;12.82;7.15;;;;;;;;;;6159191;23;20025;-93
2024/01/11 17:03:53;;;;;;;14.02;8.77;;;;;;;;;;6187797;23;20017;-93
2024/01/11 17:06:19;;;;;;;29.27;18.52;;;;;;;;;;6161627;23;20019;-93
2024/01/11 17:08:48;;;;;;;16.98;10.57;;;;;;;;;;6185966;23;20012;-93
2024/01/11 17:11:14;;;;;;;10.30;6.97;;;;;;;;;;6186155;23;20009;-93
2024/01/11 17:13:39;;;;;;;11.82;7.97;;;;;;;;;;6186154;23;20474;-93
2024/01/11 17:16:06;;;;;;;12.27;10.10;;;;;;;;;;6186144;23;20092;-93
2024/01/11 17:18:34;;;;;;;11.35;7.88;;;;;;;;;;6185550;23;20021;-94
2024/01/11 17:21:01;;;;;;;8.43;5.80;;;;;;;;;;6161081;23;20036;-93
2024/01/11 17:23:26;;;;;;;9.93;5.72;;;;;;;;;;6185902;23;20012;-93
2024/01/11 17:25:52;;;;;;;9.20;6.15;;;;;;;;;;6187895;23;20095;-94
2024/01/11 17:28:17;;;;;;;10.82;6.75;;;;;;;;;;6187539;23;20490;-93
2024/01/11 17:30:43;;;;;;;9.52;6.05;;;;;;;;;;6187076;23;20009;-93
2024/01/11 17:33:09;;;;;;;7.90;6.22;;;;;;;;;;6187480;23;20079;-95
2024/01/11 17:35:34;;;;;;;8.05;5.78;;;;;;;;;;6188066;23;20016;-94
2024/01/11 17:38:00;;;;;;;7.65;4.88;;;;;;;;;;6173333;23;20037;-94
2024/01/11 17:40:29;;;;;;;6.40;4.72;;;;;;;;;;6156496;23;20445;-94
2024/01/11 17:42:55;;;;;;;7.03;5.20;;;;;;;;;;6157156;23;20002;-92
2024/01/11 17:45:21;;;;;;;8.93;5.80;;;;;;;;;;6156646;23;20013;-93
2024/01/11 17:47:47;;;;;;;7.88;5.72;;;;;;;;;;6157739;23;20001;-95
2024/01/11 17:50:13;;;;;;;12.27;6.18;;;;;;;;;;6156460;23;20010;-94
2024/01/11 17:52:38;;;;;;;9.02;7.00;;;;;;;;;;6156267;23;20005;-94
2024/01/11 17:55:04;;;;;;;7.00;5.65;;;;;;;;;;6158023;23;20005;-96
2024/01/11 17:57:30;;;;;;;8.50;5.25;;;;;;;;;;6157260;23;20020;-95
2024/01/11 17:59:55;;;;;;;9.38;6.43;;;;;;;;;;6158037;23;20021;-95
2024/01/11 18:02:21;;;;;;;16.75;8.25;;;;;;;;;;6161440;23;20009;-95
2024/01/11 18:04:46;;;;;;;7.22;4.53;;;;;;;;;;6136001;23;20033;-95
2024/01/11 18:07:12;;;;;;;6.43;4.30;;;;;;;;;;6156248;23;20006;-95
2024/01/11 18:09:37;;;;;;;8.60;5.70;;;;;;;;;;6156843;23;20544;-94
2024/01/11 18:12:03;;;;;;;14.52;9.63;;;;;;;;;;6156400;23;20451;-95
2024/01/11 18:14:29;;;;;;;13.10;9.52;;;;;;;;;;6156197;23;20056;-94
2024/01/11 18:16:54;;;;;;;12.63;8.88;;;;;;;;;;6156189;23;20410;-94
2024/01/11 18:19:20;;;;;;;15.48;12.13;;;;;;;;;;6156358;23;20006;-95
2024/01/11 18:21:46;;;;;;;9.52;7.97;;;;;;;;;;6159442;23;20037;-94
2024/01/11 18:24:13;;;;;;;10.45;7.05;;;;;;;;;;6156475;23;20032;-95
2024/01/11 18:26:39;;;;;;;13.63;8.27;;;;;;;;;;6157836;23;20081;-95
2024/01/11 18:29:04;;;;;;;14.30;9.07;;;;;;;;;;6157785;23;20068;-95
2024/01/11 18:31:30;;;;;;;10.95;8.60;;;;;;;;;;6157672;23;20122;-95
2024/01/11 18:33:55;;;;;;;11.35;6.72;;;;;;;;;;6158588;23;20005;-95
2024/01/11 18:36:22;;;;;;;6.93;6.03;;;;;;;;;;6158658;23;20421;-96
2024/01/11 18:38:48;;;;;;;7.93;5.28;;;;;;;;;;6164471;23;20021;-94
2024/01/11 18:41:13;;;;;;;8.43;6.40;;;;;;;;;;6169703;23;20005;-96
2024/01/11 18:43:40;;;;;;;9.65;5.75;;;;;;;;;;6189872;23;20009;-94
2024/01/11 18:46:05;;;;;;;10.45;7.25;;;;;;;;;;6161879;23;20005;-93
2024/01/11 18:48:36;;;;;;;10.75;7.50;;;;;;;;;;6161715;23;20005;-93
2024/01/11 18:51:03;;;;;;;11.35;8.73;;;;;;;;;;6138842;23;20013;-95
2024/01/11 18:53:29;;;;;;;15.57;12.55;;;;;;;;;;6167633;23;20005;-96
2024/01/11 18:55:56;;;;;;;13.55;11.43;;;;;;;;;;6164900;23;20092;-95
2024/01/11 18:58:22;;;;;;;13.07;8.40;;;;;;;;;;6164642;23;20012;-96
2024/01/11 19:00:47;;;;;;;9.38;7.57;;;;;;;;;;6165890;23;20017;-95
2024/01/11 19:03:14;;;;;;;10.15;6.47;;;;;;;;;;6164170;23;20009;-96
2024/01/11 19:05:40;;;;;;;8.57;6.60;;;;;;;;;;6162267;23;20005;-93
2024/01/11 19:08:06;;;;;;;11.50;6.38;;;;;;;;;;6162775;23;20005;-96
2024/01/11 19:10:31;;;;;;;7.85;5.60;;;;;;;;;;6163291;23;20040;-93
2024/01/11 19:12:57;;;;;;;8.13;5.78;;;;;;;;;;6164048;23;20070;-95
2024/01/11 19:15:23;;;;;;;7.45;5.97;;;;;;;;;;6163792;23;20011;-96
2024/01/11 19:17:49;;;;;;;7.55;5.60;;;;;;;;;;6163254;23;20009;-93
2024/01/11 19:20:14;;;;;;;6.97;5.35;;;;;;;;;;6162173;23;20004;-95
2024/01/11 19:22:40;;;;;;;7.00;4.78;;;;;;;;;;6163422;23;20012;-94
2024/01/11 19:25:06;;;;;;;7.05;5.60;;;;;;;;;;6193973;23;20012;-95
2024/01/11 19:27:33;;;;;;;8.45;6.07;;;;;;;;;;6175381;23;20016;-96
2024/01/11 19:30:03;;;;;;;8.52;6.32;;;;;;;;;;6174373;23;20005;-94
2024/01/11 19:32:30;;;;;;;10.77;6.55;;;;;;;;;;6168793;23;20009;-94
2024/01/11 19:34:55;;;;;;;9.52;6.43;;;;;;;;;;6166499;23;20004;-95
2024/01/11 19:37:21;;;;;;;9.23;6.15;;;;;;;;;;6165176;23;20052;-96
2024/01/11 19:39:49;;;;;;;10.25;6.38;;;;;;;;;;6167291;23;20036;-94
2024/01/11 19:42:17;;;;;;;14.15;10.95;;;;;;;;;;6169060;23;20020;-96
2024/01/11 19:44:43;;;;;;;10.00;7.20;;;;;;;;;;6152111;23;20005;-96
2024/01/11 19:47:15;;;;;;;10.68;8.27;;;;;;;;;;6199280;23;20008;-96
2024/01/11 19:49:40;;;;;;;15.07;8.65;;;;;;;;;;6171074;23;19998;-96
2024/01/11 19:52:06;;;;;;;11.88;7.30;;;;;;;;;;6167080;23;20009;-95
2024/01/11 19:54:31;;;;;;;9.68;6.93;;;;;;;;;;6166531;23;20012;-95
2024/01/11 19:56:57;;;;;;;19.90;11.95;;;;;;;;;;6164144;23;20036;-95
2024/01/11 19:59:24;;;;;;;29.77;17.23;;;;;;;;;;6165161;23;20090;-95
2024/01/11 20:01:50;;;;;;;23.80;12.88;;;;;;;;;;6167055;23;20092;-95
2024/01/11 20:04:15;;;;;;;46.22;26.13;;;;;;;;;;6166436;23;20421;-96
2024/01/11 20:06:43;;;;;;;56.20;24.95;;;;;;;;;;6166496;23;20009;-95
2024/01/11 20:09:08;;;;;;;32.58;14.90;;;;;;;;;;6177082;23;20082;-96
2024/01/11 20:11:38;;;;;;;13.57;8.13;;;;;;;;;;6197733;23;20051;-96
2024/01/11 20:14:07;;;;;;;25.97;14.33;;;;;;;;;;6154113;23;20020;-96
2024/01/11 20:16:32;;;;;;;23.52;13.63;;;;;;;;;;6201377;23;20005;-94
2024/01/11 20:18:59;;;;;;;25.27;14.60;;;;;;;;;;6173425;23;20016;-96
2024/01/11 20:21:24;;;;;;;28.10;18.08;;;;;;;;;;6175567;23;20016;-95
2024/01/11 20:23:50;;;;;;;20.63;12.48;;;;;;;;;;6172160;23;20033;-95
2024/01/11 20:26:15;;;;;;;11.98;9.18;;;;;;;;;;6156072;23;20013;-95
2024/01/11 20:28:41;;;;;;;13.10;9.45;;;;;;;;;;6186015;23;20040;-94
2024/01/11 20:31:09;;;;;;;16.88;10.07;;;;;;;;;;6174751;23;20376;-95
2024/01/11 20:33:36;;;;;;;14.40;9.60;;;;;;;;;;6170864;23;20016;-94
2024/01/11 20:36:02;;;;;;;13.05;10.10;;;;;;;;;;6167544;23;20005;-96
2024/01/11 20:38:30;;;;;;;19.13;13.65;;;;;;;;;;6167646;23;20021;-94
2024/01/11 20:40:55;;;;;;;16.65;14.32;;;;;;;;;;6169564;23;20044;-96
2024/01/11 20:43:21;;;;;;;13.23;9.60;;;;;;;;;;6168492;23;20005;-94
2024/01/11 20:45:46;;;;;;;13.50;9.40;;;;;;;;;;6172359;23;20004;-94
2024/01/11 20:48:12;;;;;;;10.90;8.18;;;;;;;;;;6169289;23;20005;-93
2024/01/11 20:50:37;;;;;;;14.82;9.73;;;;;;;;;;6172130;23;20017;-94
2024/01/11 20:53:05;;;;;;;14.63;8.85;;;;;;;;;;6171379;23;20020;-96
2024/01/11 20:55:30;;;;;;;11.80;7.68;;;;;;;;;;6173251;23;20008;-95
2024/01/11 20:57:56;;;;;;;9.63;7.63;;;;;;;;;;6197971;23;20479;-96
2024/01/11 21:00:22;;;;;;;8.93;6.97;;;;;;;;;;6173141;23;20009;-94
2024/01/11 21:02:50;;;;;;;9.77;7.22;;;;;;;;;;6175848;23;20012;-96
2024/01/11 21:05:16;;;;;;;11.23;7.50;;;;;;;;;;6201344;23;20068;-95
2024/01/11 21:07:42;;;;;;;13.15;8.35;;;;;;;;;;6170543;23;20016;-94
2024/01/11 21:10:08;;;;;;;14.25;9.38;;;;;;;;;;6165175;23;20009;-96
2024/01/11 21:12:34;;;;;;;12.70;9.32;;;;;;;;;;6165247;23;20005;-95
2024/01/11 21:14:59;;;;;;;12.48;9.27;;;;;;;;;;6168138;23;20005;-95
2024/01/11 21:17:25;;;;;;;12.98;8.48;;;;;;;;;;6195338;23;20424;-96
2024/01/11 21:19:50;;;;;;;9.07;7.35;;;;;;;;;;6176585;23;20058;-95
2024/01/11 21:22:17;;;;;;;8.65;6.13;;;;;;;;;;6176134;23;20064;-95
2024/01/11 21:24:44;;;;;;;10.13;7.18;;;;;;;;;;6172034;23;20005;-95
2024/01/11 21:27:10;;;;;;;10.90;6.90;;;;;;;;;;6168319;23;20011;-94
2024/01/11 21:29:35;;;;;;;9.60;6.57;;;;;;;;;;6171712;23;20432;-95
2024/01/11 21:32:01;;;;;;;9.75;6.43;;;;;;;;;;6172298;23;20100;-96
2024/01/11 21:35:36;;;;;;;10.18;6.80;;;;;;;;;;6169101;23;20028;-96
2024/01/11 21:37:55;;;;;;;9.73;6.30;;;;;;;;;;6054288;23;20018;-95
2024/01/11 21:40:22;;;;;;;5.68;4.32;;;;;;;;;;6080746;23;20041;-96
2024/01/11 21:42:48;;;;;;;5.97;4.43;;;;;;;;;;6052114;23;20011;-94
2024/01/11 21:45:14;;;;;;;6.43;4.93;;;;;;;;;;6056846;23;20013;-95
2024/01/11 21:47:39;;;;;;;7.80;4.97;;;;;;;;;;6059049;23;20017;-95
2024/01/11 21:50:06;;;;;;;6.32;4.72;;;;;;;;;;6059150;23;20059;-95
2024/01/11 21:52:31;;;;;;;8.40;5.05;;;;;;;;;;6052196;23;20346;-96
2024/01/11 21:54:57;;;;;;;9.13;5.50;;;;;;;;;;6056034;23;20015;-96
2024/01/11 21:57:22;;;;;;;8.82;5.05;;;;;;;;;;6057807;23;20003;-96
2024/01/11 21:59:49;;;;;;;6.72;4.85;;;;;;;;;;6054865;23;20018;-96
2024/01/11 22:02:14;;;;;;;7.93;4.88;;;;;;;;;;6053171;23;20003;-95
2024/01/11 22:04:40;;;;;;;8.30;5.82;;;;;;;;;;6054871;23;20026;-94
2024/01/11 22:07:06;;;;;;;7.70;5.32;;;;;;;;;;6053590;23;20509;-95
2024/01/11 22:09:33;;;;;;;9.45;5.47;;;;;;;;;;6053794;23;20011;-95
2024/01/11 22:11:58;;;;;;;8.18;5.32;;;;;;;;;;6056158;23;20017;-94
2024/01/11 22:14:26;;;;;;;7.43;5.30;;;;;;;;;;6112392;23;20005;-96
2024/01/11 22:16:52;;;;;;;7.28;5.10;;;;;;;;;;6175525;23;20009;-93
2024/01/11 22:19:18;;;;;;;7.75;6.05;;;;;;;;;;6199857;23;20067;-94
2024/01/11 22:21:43;;;;;;;8.57;5.30;;;;;;;;;;6168648;23;20008;-95
2024/01/11 22:24:09;;;;;;;6.20;5.30;;;;;;;;;;6164320;23;20005;-96
2024/01/11 22:26:34;;;;;;;7.25;5.30;;;;;;;;;;6164463;23;20340;-95
2024/01/11 22:29:00;;;;;;;9.85;6.13;;;;;;;;;;6165591;23;20001;-93
2024/01/11 22:31:35;;;;;;;10.77;6.85;;;;;;;;;;6166816;23;20009;-95
2024/01/11 22:34:02;;;;;;;8.50;6.00;;;;;;;;;;6164441;23;20012;-93
2024/01/11 22:36:28;;;;;;;7.75;6.05;;;;;;;;;;6164522;23;20005;-96
2024/01/11 22:38:54;;;;;;;6.68;5.13;;;;;;;;;;6135779;23;20022;-93
2024/01/11 22:41:20;;;;;;;7.53;5.03;;;;;;;;;;6161801;23;20044;-94
2024/01/11 22:43:46;;;;;;;6.97;4.55;;;;;;;;;;6161549;23;20001;-93
2024/01/11 22:46:12;;;;;;;8.25;4.68;;;;;;;;;;6166415;23;20013;-95
2024/01/11 22:48:40;;;;;;;5.82;4.40;;;;;;;;;;6161955;23;20005;-95
2024/01/11 22:51:06;;;;;;;6.40;4.50;;;;;;;;;;6159627;23;20443;-96
2024/01/11 22:53:32;;;;;;;7.00;4.80;;;;;;;;;;6185350;23;20005;-95
2024/01/11 22:55:58;;;;;;;7.55;4.47;;;;;;;;;;6168200;23;20010;-93
2024/01/11 22:58:24;;;;;;;6.55;4.80;;;;;;;;;;6162939;23;20006;-94
2024/01/11 23:00:50;;;;;;;7.35;4.93;;;;;;;;;;6163331;23;20036;-94
2024/01/11 23:03:15;;;;;;;7.32;4.43;;;;;;;;;;6188479;23;20460;-95
2024/01/11 23:05:41;;;;;;;8.00;5.13;;;;;;;;;;6186460;23;20056;-94
2024/01/11 23:08:06;;;;;;;5.28;4.38;;;;;;;;;;6165717;23;20012;-95
2024/01/11 23:10:35;;;;;;;7.70;5.20;;;;;;;;;;6159667;23;20437;-96
2024/01/11 23:13:00;;;;;;;6.53;4.70;;;;;;;;;;6157632;23;20009;-91
2024/01/11 23:15:26;;;;;;;5.70;3.92;;;;;;;;;;6159547;23;20016;-95
